No Name Key, Florida
Current Conditions -  °F | °C
As of 10:53 AM on Sunday 21 Dec 2014 (Local Time) from KMTH Reporting Station
Scattered Clouds Scattered Clouds  
Wind Chill: 78°   Ceiling: Unl
Heat Index: 80°   Visibility: 10mi
Dew Point: 70°   Wind: 3mph
Humidity: 76%   Direction: NA
Pressure: 30.09"   Gusts: NA
Location:  24.6898°N, 81.3687°W
Report Text: KMTH 211553Z AUTO VRB03KT 10SM FEW026 SCT120 26/21 A3009 RMK AO2 SLP190 T02560211 $
Loading
Personal Weather Stations






























Interactive Weather Map New forecast layout! Learn more

10-Day Weather Forecast

Advertisements
Track Severe Weather on mobile